Union, Washington
Current Conditions -  °F | °C
As of 6:53 AM on Saturday 25 Oct 2014 (Local Time) from KSHN Reporting Station
Light Rain Light Rain  
Wind Chill: 43°   Ceiling: 6000
Heat Index: 49°   Visibility: 10mi
Dew Point: 47°   Wind: 15mph
Humidity: 93%   Direction: 210°SSW
Pressure: 29.56"   Gusts: NA
Location:  47.35°N, 123.1°W
Report Text: KSHN 251353Z AUTO 21013KT 10SM -RA FEW047 BKN060 OVC090 09/08 A2956 RMK AO2 RAB44 PRESRR SLP012 P0000 T00940083 TSNO
Loading
Personal Weather Stations






























Interactive Weather Map
Tropical Storm Tracking
New forecast layout! Learn more

10-Day Weather Forecast

Advertisements
Track Severe Weather on mobile